Time;durP1;ratioP1;P1;durP2;ratioP2;P2;SDS_P1;SDS_P2;PMS_P1;PMS_P2;Temp;Humidity;BMP_temperature;BMP_pressure;BME280_temperature;BME280_humidity;BME280_pressure;Samples;Min_cycle;Max_cycle;Signal;HPM_P1;HPM_P2
2022/06/21 00:01:32;;;;;;;13.50;7.00;;;;;;;;;;4968101;28;20151;-67
2022/06/21 00:03:57;;;;;;;16.17;7.50;;;;;;;;;;4973096;28;20133;-67
2022/06/21 00:06:26;;;;;;;13.80;6.85;;;;;;;;;;4950236;28;20201;-67
2022/06/21 00:08:51;;;;;;;14.30;7.20;;;;;;;;;;4971972;28;20093;-67
2022/06/21 00:11:28;;;;;;;15.50;6.93;;;;;;;;;;4966188;28;20425;-66
2022/06/21 00:13:56;;;;;;;14.32;6.82;;;;;;;;;;4970967;28;20034;-67
2022/06/21 00:16:23;;;;;;;11.38;7.05;;;;;;;;;;4970770;28;20370;-66
2022/06/21 00:18:49;;;;;;;15.30;7.90;;;;;;;;;;4968249;28;20058;-67
2022/06/21 00:21:19;;;;;;;13.93;7.45;;;;;;;;;;4964068;28;20105;-68
2022/06/21 00:23:47;;;;;;;14.05;8.30;;;;;;;;;;4951342;28;20038;-67
2022/06/21 00:26:14;;;;;;;12.40;7.28;;;;;;;;;;4964460;28;20215;-66
2022/06/21 00:28:40;;;;;;;15.45;7.68;;;;;;;;;;4951777;28;20603;-66
2022/06/21 00:31:26;;;;;;;20.30;8.43;;;;;;;;;;4950817;28;20585;-67
2022/06/21 00:33:52;;;;;;;11.63;7.40;;;;;;;;;;4949908;28;20421;-67
2022/06/21 00:36:21;;;;;;;13.10;8.13;;;;;;;;;;4951002;28;20116;-66
2022/06/21 00:38:47;;;;;;;14.40;7.40;;;;;;;;;;4950139;28;20050;-67
2022/06/21 00:41:14;;;;;;;13.90;7.70;;;;;;;;;;4951448;28;20186;-66
2022/06/21 00:43:42;;;;;;;16.02;7.90;;;;;;;;;;4951046;28;20161;-66
2022/06/21 00:46:26;;;;;;;17.85;8.10;;;;;;;;;;4950409;28;20436;-67
2022/06/21 00:48:53;;;;;;;13.98;8.02;;;;;;;;;;4950844;28;20042;-67
2022/06/21 00:51:20;;;;;;;13.77;7.88;;;;;;;;;;4951139;28;20046;-66
2022/06/21 00:53:50;;;;;;;12.68;7.68;;;;;;;;;;4969761;28;20143;-67
2022/06/21 00:56:28;;;;;;;14.23;7.68;;;;;;;;;;4970261;28;20079;-66
2022/06/21 00:58:54;;;;;;;13.75;7.68;;;;;;;;;;4969937;28;20152;-66
2022/06/21 01:01:26;;;;;;;13.32;7.43;;;;;;;;;;4969920;28;20361;-66
2022/06/21 01:03:57;;;;;;;12.25;7.43;;;;;;;;;;4969853;28;20033;-66
2022/06/21 01:06:32;;;;;;;13.52;7.93;;;;;;;;;;4967855;28;20045;-66
2022/06/21 01:09:01;;;;;;;15.68;9.00;;;;;;;;;;4969942;28;20042;-66
2022/06/21 01:11:30;;;;;;;13.70;7.20;;;;;;;;;;4969993;28;20620;-66
2022/06/21 01:13:58;;;;;;;14.02;8.10;;;;;;;;;;4974764;28;20506;-67
2022/06/21 01:16:25;;;;;;;15.63;8.00;;;;;;;;;;4968283;28;20156;-67
2022/06/21 01:18:50;;;;;;;14.25;7.90;;;;;;;;;;4969595;28;20315;-67
2022/06/21 01:21:19;;;;;;;15.27;8.05;;;;;;;;;;4972281;28;20042;-66
2022/06/21 01:23:45;;;;;;;11.48;8.23;;;;;;;;;;4969170;28;20087;-66
2022/06/21 01:26:28;;;;;;;14.00;8.00;;;;;;;;;;4969554;28;20038;-66
2022/06/21 01:28:54;;;;;;;16.73;8.32;;;;;;;;;;4952963;28;20042;-67
2022/06/21 01:31:19;;;;;;;16.40;8.40;;;;;;;;;;4949201;28;20113;-67
2022/06/21 01:33:44;;;;;;;14.07;8.55;;;;;;;;;;4949629;28;20514;-67
2022/06/21 01:36:16;;;;;;;14.95;8.05;;;;;;;;;;4950217;28;20026;-67
2022/06/21 01:38:45;;;;;;;15.35;8.13;;;;;;;;;;4949003;28;20080;-67
2022/06/21 01:41:13;;;;;;;15.13;7.68;;;;;;;;;;4950779;28;20054;-67
2022/06/21 01:43:40;;;;;;;14.07;8.00;;;;;;;;;;4964475;28;20026;-67
2022/06/21 01:46:06;;;;;;;19.67;8.73;;;;;;;;;;4962054;28;20361;-67
2022/06/21 01:48:37;;;;;;;13.63;7.88;;;;;;;;;;4949620;28;20034;-66
2022/06/21 01:51:10;;;;;;;12.52;8.45;;;;;;;;;;4953700;28;20451;-67
2022/06/21 01:53:36;;;;;;;13.10;8.00;;;;;;;;;;4949793;28;20064;-67
2022/06/21 01:56:06;;;;;;;12.27;7.93;;;;;;;;;;4949459;28;20034;-68
2022/06/21 01:58:34;;;;;;;13.88;7.93;;;;;;;;;;4950450;28;20038;-67
2022/06/21 02:01:00;;;;;;;14.48;8.50;;;;;;;;;;4949128;28;20046;-67
2022/06/21 02:03:31;;;;;;;14.95;8.45;;;;;;;;;;4949865;28;20034;-67
2022/06/21 02:05:58;;;;;;;17.77;8.77;;;;;;;;;;4949629;28;21116;-68
2022/06/21 02:08:25;;;;;;;15.50;9.02;;;;;;;;;;4948446;28;20042;-66
2022/06/21 02:10:54;;;;;;;15.43;8.90;;;;;;;;;;4949458;28;20042;-67
2022/06/21 02:13:32;;;;;;;14.80;8.70;;;;;;;;;;4948506;28;20482;-67
2022/06/21 02:16:03;;;;;;;15.27;8.60;;;;;;;;;;4949135;28;20071;-67
2022/06/21 02:18:30;;;;;;;18.33;8.38;;;;;;;;;;4967535;28;20128;-66
2022/06/21 02:21:01;;;;;;;15.88;8.77;;;;;;;;;;4967086;28;20623;-66
2022/06/21 02:23:26;;;;;;;11.13;7.43;;;;;;;;;;4956569;28;21653;-67
2022/06/21 02:25:53;;;;;;;18.52;8.35;;;;;;;;;;4969320;28;20585;-67
2022/06/21 02:28:19;;;;;;;17.35;8.27;;;;;;;;;;4970377;28;20121;-67
2022/06/21 02:30:48;;;;;;;16.52;8.73;;;;;;;;;;4952303;28;20426;-67
2022/06/21 02:33:16;;;;;;;17.23;8.85;;;;;;;;;;4948979;28;20153;-67
2022/06/21 02:35:41;;;;;;;17.90;8.38;;;;;;;;;;4947356;28;20068;-67
2022/06/21 02:38:11;;;;;;;16.80;8.23;;;;;;;;;;4949242;28;20045;-66
2022/06/21 02:40:41;;;;;;;13.43;7.93;;;;;;;;;;4947716;28;20203;-67
2022/06/21 02:43:10;;;;;;;14.15;7.90;;;;;;;;;;4948070;28;20557;-67
2022/06/21 02:45:45;;;;;;;14.43;7.97;;;;;;;;;;4948617;28;20046;-69
2022/06/21 02:48:12;;;;;;;10.40;6.85;;;;;;;;;;4954200;28;20038;-67
2022/06/21 02:50:41;;;;;;;13.13;7.60;;;;;;;;;;4947909;28;20446;-68
2022/06/21 02:53:11;;;;;;;8.70;7.38;;;;;;;;;;4949173;28;20050;-66
2022/06/21 02:55:43;;;;;;;15.30;9.00;;;;;;;;;;4957489;28;20590;-67
2022/06/21 02:58:14;;;;;;;16.63;8.20;;;;;;;;;;4948444;28;20565;-66
2022/06/21 03:00:42;;;;;;;13.43;8.52;;;;;;;;;;4949146;28;20042;-67
2022/06/21 03:03:11;;;;;;;14.93;7.82;;;;;;;;;;4946095;28;20030;-66
2022/06/21 03:05:36;;;;;;;13.73;8.20;;;;;;;;;;4953654;28;20247;-66
2022/06/21 03:08:03;;;;;;;15.10;8.52;;;;;;;;;;4948154;28;20031;-67
2022/06/21 03:10:31;;;;;;;15.20;8.40;;;;;;;;;;4975055;28;20030;-67
2022/06/21 03:13:07;;;;;;;17.73;10.40;;;;;;;;;;4967076;28;20839;-67
2022/06/21 03:15:33;;;;;;;15.90;9.40;;;;;;;;;;4967244;28;20061;-67
2022/06/21 03:18:02;;;;;;;18.88;10.65;;;;;;;;;;4968245;28;22372;-66
2022/06/21 03:20:29;;;;;;;20.02;10.65;;;;;;;;;;4967285;28;20030;-67
2022/06/21 03:22:55;;;;;;;17.08;9.77;;;;;;;;;;4971399;28;20053;-65
2022/06/21 03:25:23;;;;;;;18.75;10.63;;;;;;;;;;4967763;28;20346;-67
2022/06/21 03:27:52;;;;;;;23.70;11.18;;;;;;;;;;4967759;28;20132;-67
2022/06/21 03:30:19;;;;;;;13.32;10.43;;;;;;;;;;4982186;28;20159;-67
2022/06/21 03:32:44;;;;;;;15.07;10.30;;;;;;;;;;4967242;28;20607;-67
2022/06/21 03:35:10;;;;;;;16.83;11.18;;;;;;;;;;4967576;28;20042;-67
2022/06/21 03:37:36;;;;;;;19.38;11.23;;;;;;;;;;4962239;28;20140;-65
2022/06/21 03:42:50;;;;;;;16.88;10.57;;;;;;;;;;4947439;28;20057;-65
2022/06/21 03:45:29;;;;;;;23.98;10.68;;;;;;;;;;4947817;28;20046;-66
2022/06/21 03:48:06;;;;;;;17.13;10.43;;;;;;;;;;4948983;28;20896;-67
2022/06/21 03:50:34;;;;;;;23.02;13.15;;;;;;;;;;4951560;28;20047;-67
2022/06/21 03:53:12;;;;;;;21.20;13.45;;;;;;;;;;4955624;28;20038;-66
2022/06/21 03:55:39;;;;;;;19.95;12.73;;;;;;;;;;4959181;28;20161;-68
2022/06/21 03:58:08;;;;;;;16.38;10.98;;;;;;;;;;4952766;28;20688;-68
2022/06/21 04:00:40;;;;;;;16.60;10.75;;;;;;;;;;4951367;28;20041;-67
2022/06/21 04:03:11;;;;;;;16.98;11.40;;;;;;;;;;4956957;28;20688;-68
2022/06/21 04:05:40;;;;;;;18.88;10.85;;;;;;;;;;4950593;28;20041;-67
2022/06/21 04:08:13;;;;;;;13.68;9.80;;;;;;;;;;4950067;28;20058;-67
2022/06/21 04:10:38;;;;;;;;;;;;;;;;;;4954879;28;20468;-67
2022/06/21 04:13:34;;;;;;;13.42;9.70;;;;;;;;;;4952929;28;19914;-67
2022/06/21 04:16:06;;;;;;;17.88;10.57;;;;;;;;;;4943411;28;20034;-66
2022/06/21 04:18:36;;;;;;;15.63;10.35;;;;;;;;;;4952784;28;20186;-67
2022/06/21 04:21:10;;;;;;;16.98;10.57;;;;;;;;;;4948569;28;20338;-66
2022/06/21 04:23:51;;;;;;;15.52;10.20;;;;;;;;;;4949740;28;20036;-67
2022/06/21 04:26:19;;;;;;;21.10;11.02;;;;;;;;;;4950592;28;20542;-67
2022/06/21 04:28:48;;;;;;;21.45;10.93;;;;;;;;;;4951178;28;20375;-68
2022/06/21 04:31:21;;;;;;;17.90;10.07;;;;;;;;;;4970465;28;20580;-66
2022/06/21 04:33:55;;;;;;;16.27;11.20;;;;;;;;;;4970062;28;20480;-66
2022/06/21 04:36:26;;;;;;;15.70;10.63;;;;;;;;;;4969386;28;20249;-68
2022/06/21 04:38:58;;;;;;;18.63;10.32;;;;;;;;;;4963533;28;20619;-66
2022/06/21 04:41:27;;;;;;;18.40;10.43;;;;;;;;;;4949047;28;20207;-66
2022/06/21 04:44:01;;;;;;;16.73;10.30;;;;;;;;;;4949328;28;20034;-67
2022/06/21 04:46:54;;;;;;;16.00;10.65;;;;;;;;;;4952462;28;20045;-67
2022/06/21 04:49:22;;;;;;;19.55;10.45;;;;;;;;;;4949782;28;20042;-67
2022/06/21 04:51:51;;;;;;;16.25;9.27;;;;;;;;;;4950753;28;20068;-67
2022/06/21 04:54:24;;;;;;;17.95;9.32;;;;;;;;;;4950521;28;20804;-67
2022/06/21 04:57:07;;;;;;;21.95;8.90;;;;;;;;;;4950660;28;20065;-68
2022/06/21 04:59:35;;;;;;;15.07;6.35;;;;;;;;;;4949564;28;20503;-68
2022/06/21 05:02:02;;;;;;;11.23;5.60;;;;;;;;;;4953580;28;20297;-67
2022/06/21 05:04:32;;;;;;;11.27;5.15;;;;;;;;;;4949164;28;20038;-66
2022/06/21 05:07:01;;;;;;;12.75;4.50;;;;;;;;;;4950013;28;20109;-66
2022/06/21 05:09:29;;;;;;;9.23;4.03;;;;;;;;;;4950476;28;20136;-66
2022/06/21 05:11:57;;;;;;;8.27;3.50;;;;;;;;;;4950655;28;20441;-66
2022/06/21 05:14:25;;;;;;;6.90;2.83;;;;;;;;;;4949378;28;20481;-66
2022/06/21 05:16:50;;;;;;;9.13;3.13;;;;;;;;;;4948807;28;20037;-67
2022/06/21 05:19:19;;;;;;;13.68;3.13;;;;;;;;;;4949974;28;20501;-67
2022/06/21 05:21:54;;;;;;;11.68;2.97;;;;;;;;;;4949620;28;20057;-67
2022/06/21 05:24:19;;;;;;;9.98;3.25;;;;;;;;;;4950221;28;20056;-67
2022/06/21 05:26:55;;;;;;;7.45;2.80;;;;;;;;;;4950513;28;20251;-67
2022/06/21 05:29:25;;;;;;;7.18;2.80;;;;;;;;;;4958137;28;20074;-67
2022/06/21 05:31:53;;;;;;;5.78;2.47;;;;;;;;;;4969545;28;20041;-67
2022/06/21 05:34:23;;;;;;;9.38;3.15;;;;;;;;;;4968763;28;20477;-67
2022/06/21 05:36:55;;;;;;;10.30;2.83;;;;;;;;;;4973015;28;20116;-67
2022/06/21 05:39:23;;;;;;;9.80;3.10;;;;;;;;;;4968819;28;20042;-68
2022/06/21 05:41:52;;;;;;;7.80;2.78;;;;;;;;;;4982884;28;20042;-67
2022/06/21 05:44:20;;;;;;;10.25;3.00;;;;;;;;;;4968949;28;20287;-66
2022/06/21 05:46:48;;;;;;;8.05;2.72;;;;;;;;;;4967698;28;20473;-66
2022/06/21 05:49:23;;;;;;;8.35;2.70;;;;;;;;;;4951199;28;20354;-67
2022/06/21 05:51:52;;;;;;;10.45;2.63;;;;;;;;;;4953883;28;20038;-66
2022/06/21 05:54:21;;;;;;;7.60;3.00;;;;;;;;;;4960704;28;20290;-67
2022/06/21 05:56:48;;;;;;;7.40;2.70;;;;;;;;;;4971171;28;20037;-67
2022/06/21 05:59:15;;;;;;;9.07;3.10;;;;;;;;;;4968752;28;20049;-67
2022/06/21 06:01:47;;;;;;;9.77;3.00;;;;;;;;;;4968768;28;20123;-67
2022/06/21 06:04:17;;;;;;;10.57;3.42;;;;;;;;;;4968663;28;20119;-67
2022/06/21 06:06:44;;;;;;;14.27;3.10;;;;;;;;;;4976461;28;20037;-67
2022/06/21 06:09:19;;;;;;;8.43;3.30;;;;;;;;;;4959371;28;20074;-67
2022/06/21 06:12:00;;;;;;;8.07;3.30;;;;;;;;;;4951423;28;22533;-67
2022/06/21 06:14:26;;;;;;;;;;;;;;;;;;4953079;28;20810;-67
2022/06/21 06:16:52;;;;;;;9.90;3.47;;;;;;;;;;4966719;28;19921;-67
2022/06/21 06:19:20;;;;;;;10.02;4.07;;;;;;;;;;4951789;28;20041;-66
2022/06/21 06:21:51;;;;;;;12.05;4.13;;;;;;;;;;4951681;28;20136;-66
2022/06/21 06:24:28;;;;;;;11.02;3.90;;;;;;;;;;4951062;28;20064;-66
2022/06/21 06:26:55;;;;;;;10.68;4.18;;;;;;;;;;4954506;28;20107;-66
2022/06/21 06:29:25;;;;;;;11.35;3.63;;;;;;;;;;4959356;28;20046;-67
2022/06/21 06:31:57;;;;;;;11.63;3.72;;;;;;;;;;4952400;28;20041;-66
2022/06/21 06:34:24;;;;;;;12.65;4.15;;;;;;;;;;4964486;28;20057;-67
2022/06/21 06:36:55;;;;;;;15.70;4.70;;;;;;;;;;4971037;28;20073;-66
2022/06/21 06:39:27;;;;;;;9.73;3.70;;;;;;;;;;4981489;28;20548;-66
2022/06/21 06:42:12;;;;;;;9.57;3.53;;;;;;;;;;4966749;28;20053;-66
2022/06/21 06:44:41;;;;;;;13.82;5.28;;;;;;;;;;4981744;28;20085;-66
2022/06/21 06:47:17;;;;;;;20.42;4.75;;;;;;;;;;4966962;28;20034;-66
2022/06/21 06:50:03;;;;;;;18.25;4.40;;;;;;;;;;4968247;28;20045;-67
2022/06/21 06:52:31;;;;;;;9.68;4.10;;;;;;;;;;4959297;28;20072;-69
2022/06/21 06:55:06;;;;;;;8.23;3.00;;;;;;;;;;4969001;28;20273;-72
2022/06/21 06:57:40;;;;;;;7.63;2.80;;;;;;;;;;4968030;28;20577;-69
2022/06/21 07:00:12;;;;;;;7.88;2.45;;;;;;;;;;4966762;28;20234;-70
2022/06/21 07:02:40;;;;;;;9.05;3.20;;;;;;;;;;4967717;28;20376;-71
2022/06/21 07:05:24;;;;;;;8.80;2.90;;;;;;;;;;4967194;28;20566;-69
2022/06/21 07:07:54;;;;;;;15.00;3.58;;;;;;;;;;4967174;28;20226;-71
2022/06/21 07:10:21;;;;;;;13.90;4.20;;;;;;;;;;4966529;28;20041;-70
2022/06/21 07:12:50;;;;;;;12.38;3.67;;;;;;;;;;4968480;28;20133;-71
2022/06/21 07:15:16;;;;;;;14.05;3.65;;;;;;;;;;4967523;28;20557;-71
2022/06/21 07:17:44;;;;;;;10.85;3.65;;;;;;;;;;4967016;28;20033;-71
2022/06/21 07:20:14;;;;;;;14.90;3.70;;;;;;;;;;4976848;28;20048;-71
2022/06/21 07:22:39;;;;;;;14.48;3.78;;;;;;;;;;4969136;28;20045;-73
2022/06/21 07:25:19;;;;;;;11.02;3.58;;;;;;;;;;4971824;28;20034;-75
2022/06/21 07:27:47;;;;;;;14.35;3.58;;;;;;;;;;4969034;28;20041;-71
2022/06/21 07:30:13;;;;;;;9.55;3.63;;;;;;;;;;4967945;28;20040;-72
2022/06/21 07:32:54;;;;;;;10.52;3.60;;;;;;;;;;4970182;28;20141;-71
2022/06/21 07:35:39;;;;;;;12.88;3.58;;;;;;;;;;4985990;28;20883;-73
2022/06/21 07:38:09;;;;;;;13.60;3.20;;;;;;;;;;4969820;28;20030;-72
2022/06/21 07:40:36;;;;;;;10.30;3.63;;;;;;;;;;4971650;28;20037;-73
2022/06/21 07:43:06;;;;;;;12.40;3.08;;;;;;;;;;4970700;28;20090;-71
2022/06/21 07:45:36;;;;;;;10.88;3.65;;;;;;;;;;4969746;28;20267;-70
2022/06/21 07:48:07;;;;;;;15.30;3.88;;;;;;;;;;4969964;28;20121;-68
2022/06/21 07:50:35;;;;;;;10.98;3.58;;;;;;;;;;4969116;28;20034;-68
2022/06/21 07:53:13;;;;;;;11.05;3.88;;;;;;;;;;4970381;28;20033;-69
2022/06/21 07:55:40;;;;;;;10.32;4.53;;;;;;;;;;4969811;28;20033;-68
2022/06/21 07:58:11;;;;;;;11.55;4.30;;;;;;;;;;4969555;28;20037;-68
2022/06/21 08:09:13;;;;;;;10.23;4.18;;;;;;;;;;4957886;28;20045;-67
2022/06/21 08:11:45;;;;;;;12.73;4.00;;;;;;;;;;4950064;28;20048;-73
2022/06/21 08:14:11;;;;;;;13.07;3.80;;;;;;;;;;4950787;28;20097;-73
2022/06/21 08:16:43;;;;;;;8.80;3.55;;;;;;;;;;4951516;28;20030;-73
2022/06/21 08:19:13;;;;;;;8.38;3.38;;;;;;;;;;4954908;28;20137;-73
2022/06/21 08:21:47;;;;;;;13.65;3.40;;;;;;;;;;4948811;28;20134;-68
2022/06/21 08:24:28;;;;;;;12.60;3.70;;;;;;;;;;4970518;28;20136;-73
2022/06/21 08:26:58;;;;;;;13.13;3.90;;;;;;;;;;4970280;28;20119;-71
2022/06/21 08:29:28;;;;;;;8.18;3.10;;;;;;;;;;4969537;28;20277;-72
2022/06/21 08:31:55;;;;;;;11.30;3.47;;;;;;;;;;4971179;28;20044;-72
2022/06/21 08:34:30;;;;;;;10.55;2.95;;;;;;;;;;4973412;28;20895;-71
2022/06/21 08:36:56;;;;;;;9.68;3.25;;;;;;;;;;4970862;28;20907;-67
2022/06/21 08:39:42;;;;;;;13.63;3.35;;;;;;;;;;4943058;28;20558;-65
2022/06/21 08:42:14;;;;;;;10.00;3.13;;;;;;;;;;4959880;28;21007;-67
2022/06/21 08:44:44;;;;;;;11.45;3.50;;;;;;;;;;4953335;28;20073;-65
2022/06/21 08:47:21;;;;;;;10.05;3.22;;;;;;;;;;4953598;28;20045;-69
2022/06/21 08:49:47;;;;;;;11.07;3.30;;;;;;;;;;4958962;28;20119;-68
2022/06/21 08:52:29;;;;;;;8.57;3.22;;;;;;;;;;4956423;28;20037;-69
2022/06/21 08:54:54;;;;;;;10.50;3.30;;;;;;;;;;4950510;28;20038;-71
2022/06/21 08:57:27;;;;;;;10.07;3.28;;;;;;;;;;4966197;28;20035;-70
2022/06/21 08:59:52;;;;;;;10.35;3.15;;;;;;;;;;4951808;28;20865;-71
2022/06/21 09:02:29;;;;;;;8.00;3.10;;;;;;;;;;4951255;28;20074;-71
2022/06/21 09:05:13;;;;;;;9.55;2.70;;;;;;;;;;4951547;28;20084;-66
2022/06/21 09:07:55;;;;;;;10.30;2.97;;;;;;;;;;4953227;28;20045;-67
2022/06/21 09:10:35;;;;;;;9.85;3.35;;;;;;;;;;4969809;28;20842;-67
2022/06/21 09:13:17;;;;;;;13.18;3.13;;;;;;;;;;4966467;28;20033;-65
2022/06/21 09:15:42;;;;;;;10.65;3.40;;;;;;;;;;4967528;28;20526;-66
2022/06/21 09:18:10;;;;;;;9.27;3.22;;;;;;;;;;4968801;28;20467;-64
2022/06/21 09:20:35;;;;;;;10.15;2.90;;;;;;;;;;4966032;28;20582;-65
2022/06/21 09:23:22;;;;;;;7.80;2.88;;;;;;;;;;4967770;28;20248;-64
2022/06/21 09:26:09;;;;;;;10.10;3.00;;;;;;;;;;4972734;28;20030;-65
2022/06/21 09:28:48;;;;;;;9.65;3.10;;;;;;;;;;4969048;28;20048;-63
2022/06/21 09:31:35;;;;;;;8.77;2.80;;;;;;;;;;4968066;28;20606;-64
2022/06/21 09:34:06;;;;;;;8.60;3.47;;;;;;;;;;4966509;28;20029;-64
2022/06/21 09:36:32;;;;;;;11.02;2.90;;;;;;;;;;4969991;28;20650;-64
2022/06/21 09:39:10;;;;;;;7.80;2.90;;;;;;;;;;4969088;28;20042;-65
2022/06/21 09:41:47;;;;;;;11.05;3.38;;;;;;;;;;4968196;28;20085;-65
2022/06/21 09:44:31;;;;;;;13.80;3.40;;;;;;;;;;4967959;28;20577;-64
2022/06/21 09:47:22;;;;;;;10.93;2.97;;;;;;;;;;4962712;28;20546;-64
2022/06/21 09:49:56;;;;;;;9.13;3.20;;;;;;;;;;4948745;28;20030;-65
2022/06/21 09:52:42;;;;;;;9.75;3.28;;;;;;;;;;4950395;28;20938;-64
2022/06/21 09:55:25;;;;;;;10.82;3.10;;;;;;;;;;4968635;28;20053;-66
2022/06/21 09:57:53;;;;;;;7.68;2.88;;;;;;;;;;4948556;28;20030;-66
2022/06/21 10:00:35;;;;;;;12.43;3.47;;;;;;;;;;4951218;28;20099;-65
2022/06/21 10:03:01;;;;;;;11.38;3.30;;;;;;;;;;4951058;28;20050;-67
2022/06/21 10:05:34;;;;;;;10.32;3.25;;;;;;;;;;4951240;28;20755;-65
2022/06/21 10:08:17;;;;;;;12.75;3.92;;;;;;;;;;4950156;28;20116;-65
2022/06/21 10:10:44;;;;;;;8.90;3.50;;;;;;;;;;4952202;28;20836;-66
2022/06/21 10:13:17;;;;;;;10.95;3.40;;;;;;;;;;4966977;28;20782;-66
2022/06/21 10:15:48;;;;;;;8.68;2.95;;;;;;;;;;4948497;28;20093;-66
2022/06/21 10:18:32;;;;;;;7.85;3.03;;;;;;;;;;4947618;28;21134;-65
2022/06/21 10:20:57;;;;;;;9.80;2.90;;;;;;;;;;4950087;28;20040;-65
2022/06/21 10:23:28;;;;;;;13.73;3.40;;;;;;;;;;4965453;28;21081;-65
2022/06/21 10:25:59;;;;;;;10.32;2.85;;;;;;;;;;4951821;28;20096;-66
2022/06/21 10:28:50;;;;;;;10.85;3.22;;;;;;;;;;4963579;28;20062;-65
2022/06/21 10:31:34;;;;;;;8.38;3.22;;;;;;;;;;4952753;28;20030;-67
2022/06/21 10:34:12;;;;;;;9.13;3.50;;;;;;;;;;4953066;28;20041;-66
2022/06/21 10:37:02;;;;;;;8.27;3.35;;;;;;;;;;4950013;28;20030;-66
2022/06/21 10:39:31;;;;;;;11.07;3.70;;;;;;;;;;4952427;28;20042;-65
2022/06/21 10:45:05;;;;;;;10.95;3.30;;;;;;;;;;4951082;28;20113;-66
2022/06/21 10:47:33;;;;;;;10.82;3.00;;;;;;;;;;4971345;28;20041;-64
2022/06/21 10:50:02;;;;;;;7.65;2.83;;;;;;;;;;4968842;28;20041;-66
2022/06/21 10:52:48;;;;;;;9.50;3.10;;;;;;;;;;4971635;28;20041;-66
2022/06/21 10:55:16;;;;;;;12.35;3.08;;;;;;;;;;4970083;28;20202;-65
2022/06/21 10:58:00;;;;;;;12.07;3.10;;;;;;;;;;4974730;28;20108;-65
2022/06/21 11:03:35;;;;;;;8.88;3.17;;;;;;;;;;4971348;28;20112;-64
2022/06/21 11:06:19;;;;;;;10.07;3.22;;;;;;;;;;4969858;28;20044;-64
2022/06/21 11:09:06;;;;;;;11.68;3.38;;;;;;;;;;4970828;28;20089;-66
2022/06/21 11:11:38;;;;;;;7.60;2.70;;;;;;;;;;4947311;28;20041;-66
2022/06/21 11:14:10;;;;;;;10.10;3.20;;;;;;;;;;4947269;28;20838;-67
2022/06/21 11:16:41;;;;;;;10.57;3.08;;;;;;;;;;4945829;28;20552;-67
2022/06/21 11:19:18;;;;;;;11.95;3.70;;;;;;;;;;4949972;28;20050;-65
2022/06/21 11:21:56;;;;;;;11.85;3.75;;;;;;;;;;4960466;28;20204;-68
2022/06/21 11:24:39;;;;;;;9.23;3.50;;;;;;;;;;4946378;28;20042;-68
2022/06/21 11:27:15;;;;;;;10.95;3.85;;;;;;;;;;4953434;28;20038;-66
2022/06/21 11:29:48;;;;;;;12.75;3.25;;;;;;;;;;4946952;28;20215;-65
2022/06/21 11:32:19;;;;;;;7.93;2.90;;;;;;;;;;4947581;28;20927;-66
2022/06/21 11:35:03;;;;;;;7.85;3.10;;;;;;;;;;4946107;28;20035;-66
2022/06/21 11:37:29;;;;;;;12.32;3.20;;;;;;;;;;4945979;28;20042;-67
2022/06/21 11:40:05;;;;;;;9.02;2.80;;;;;;;;;;4946044;28;20113;-66
2022/06/21 11:42:30;;;;;;;8.38;2.70;;;;;;;;;;4947772;28;20207;-66
2022/06/21 11:45:16;;;;;;;8.75;2.80;;;;;;;;;;4948132;28;20087;-65
2022/06/21 11:48:01;;;;;;;7.47;2.50;;;;;;;;;;4948134;28;20030;-66
2022/06/21 11:50:36;;;;;;;9.25;2.80;;;;;;;;;;4945759;28;20512;-66
2022/06/21 11:53:14;;;;;;;9.50;2.67;;;;;;;;;;4946164;28;20372;-66
2022/06/21 11:55:43;;;;;;;7.63;3.08;;;;;;;;;;4950051;28;20165;-67
2022/06/21 11:58:09;;;;;;;8.63;2.70;;;;;;;;;;4946511;28;20577;-65
2022/06/21 12:00:47;;;;;;;8.55;3.05;;;;;;;;;;4946556;28;20195;-69
2022/06/21 12:03:20;;;;;;;8.07;2.88;;;;;;;;;;4946312;28;20047;-71
2022/06/21 12:05:45;;;;;;;7.80;2.53;;;;;;;;;;4947321;28;20169;-69
2022/06/21 12:08:23;;;;;;;5.43;2.42;;;;;;;;;;4949287;28;20136;-68
2022/06/21 12:11:17;;;;;;;8.13;2.47;;;;;;;;;;4951299;28;20175;-68
2022/06/21 12:13:56;;;;;;;6.75;2.45;;;;;;;;;;4949597;28;20100;-68
2022/06/21 12:16:30;;;;;;;7.78;2.72;;;;;;;;;;4951522;28;20077;-67
2022/06/21 12:19:07;;;;;;;7.53;2.58;;;;;;;;;;4950508;28;20034;-67
2022/06/21 12:21:37;;;;;;;7.95;2.55;;;;;;;;;;4949521;28;20081;-67
2022/06/21 12:24:07;;;;;;;9.95;3.30;;;;;;;;;;4950678;28;20081;-67
2022/06/21 12:26:33;;;;;;;8.75;2.50;;;;;;;;;;4963732;28;20365;-67
2022/06/21 12:28:59;;;;;;;5.05;2.35;;;;;;;;;;4953713;28;20710;-68
2022/06/21 12:31:32;;;;;;;5.55;2.58;;;;;;;;;;4954534;28;20395;-68
2022/06/21 12:34:10;;;;;;;8.38;2.47;;;;;;;;;;4951196;28;20034;-68
2022/06/21 12:36:49;;;;;;;10.48;2.25;;;;;;;;;;4949823;28;20853;-68
2022/06/21 12:39:24;;;;;;;7.13;2.40;;;;;;;;;;4964922;28;20402;-68
2022/06/21 12:42:16;;;;;;;8.10;2.53;;;;;;;;;;4951391;28;20272;-70
2022/06/21 12:44:41;;;;;;;8.20;2.58;;;;;;;;;;4951444;28;20033;-71
2022/06/21 12:47:06;;;;;;;7.40;2.30;;;;;;;;;;4950762;28;20361;-66
2022/06/21 12:49:32;;;;;;;7.53;2.90;;;;;;;;;;4949057;28;20042;-68
2022/06/21 12:52:10;;;;;;;7.22;2.13;;;;;;;;;;4951405;28;20293;-68
2022/06/21 12:54:51;;;;;;;7.55;2.60;;;;;;;;;;4950497;28;20030;-69
2022/06/21 12:57:35;;;;;;;8.07;2.70;;;;;;;;;;4951007;28;20642;-67
2022/06/21 13:00:10;;;;;;;8.40;2.50;;;;;;;;;;4951583;28;21018;-69
2022/06/21 13:02:49;;;;;;;8.77;2.63;;;;;;;;;;4949644;28;20074;-68
2022/06/21 13:05:27;;;;;;;7.70;2.40;;;;;;;;;;4948795;28;20304;-67
2022/06/21 13:08:05;;;;;;;11.43;2.60;;;;;;;;;;4950616;28;20049;-68
2022/06/21 13:10:33;;;;;;;5.70;2.30;;;;;;;;;;4948165;28;20045;-67
2022/06/21 13:13:07;;;;;;;7.05;2.67;;;;;;;;;;4951190;28;20358;-68
2022/06/21 13:15:39;;;;;;;5.43;2.60;;;;;;;;;;4949849;28;20264;-67
2022/06/21 13:18:14;;;;;;;5.00;2.15;;;;;;;;;;4969213;28;20522;-67
2022/06/21 13:20:44;;;;;;;8.82;2.65;;;;;;;;;;4967153;28;20151;-67
2022/06/21 13:23:18;;;;;;;6.45;2.50;;;;;;;;;;4982567;28;20251;-67
2022/06/21 13:25:50;;;;;;;7.05;2.60;;;;;;;;;;4966412;28;20433;-67
2022/06/21 13:28:16;;;;;;;7.65;2.20;;;;;;;;;;4949006;28;20069;-68
2022/06/21 13:30:49;;;;;;;8.15;2.45;;;;;;;;;;4956036;28;20052;-67
2022/06/21 13:33:17;;;;;;;6.50;2.13;;;;;;;;;;4949565;28;20034;-68
2022/06/21 13:35:51;;;;;;;7.57;2.55;;;;;;;;;;4949649;28;20090;-67
2022/06/21 13:38:36;;;;;;;7.18;2.35;;;;;;;;;;4968956;28;20040;-68
2022/06/21 13:41:09;;;;;;;6.18;2.38;;;;;;;;;;4949541;28;20150;-68
2022/06/21 13:43:37;;;;;;;7.18;2.60;;;;;;;;;;4968165;28;20071;-68
2022/06/21 13:46:10;;;;;;;7.90;2.70;;;;;;;;;;4969008;28;21200;-68
2022/06/21 13:48:43;;;;;;;7.55;2.60;;;;;;;;;;4969493;28;20447;-68
2022/06/21 13:51:14;;;;;;;7.03;2.67;;;;;;;;;;4968558;28;20041;-68
2022/06/21 13:53:46;;;;;;;9.40;2.90;;;;;;;;;;4950027;28;20948;-67
2022/06/21 13:56:19;;;;;;;8.20;2.80;;;;;;;;;;4949084;28;20049;-68
2022/06/21 13:58:52;;;;;;;7.80;2.40;;;;;;;;;;4949653;28;20034;-68
2022/06/21 14:01:21;;;;;;;8.35;2.60;;;;;;;;;;4955666;28;21856;-65
2022/06/21 14:04:02;;;;;;;8.65;2.92;;;;;;;;;;4950011;28;20037;-65
2022/06/21 14:06:45;;;;;;;9.48;2.90;;;;;;;;;;4982911;28;20049;-65
2022/06/21 14:09:20;;;;;;;6.20;2.60;;;;;;;;;;4968091;28;20060;-65
2022/06/21 14:11:56;;;;;;;6.18;2.85;;;;;;;;;;4968473;28;20180;-65
2022/06/21 14:14:33;;;;;;;8.68;2.40;;;;;;;;;;4983029;28;20033;-64
2022/06/21 14:17:18;;;;;;;7.45;2.70;;;;;;;;;;4968635;28;20346;-65
2022/06/21 14:19:51;;;;;;;8.45;2.65;;;;;;;;;;4968711;28;20293;-66
2022/06/21 14:22:19;;;;;;;7.38;2.67;;;;;;;;;;4951257;28;20506;-65
2022/06/21 14:24:44;;;;;;;9.50;3.10;;;;;;;;;;4948140;28;20031;-65
2022/06/21 14:27:19;;;;;;;9.95;2.90;;;;;;;;;;4949842;28;20601;-66
2022/06/21 14:30:05;;;;;;;8.15;2.65;;;;;;;;;;4945488;28;20034;-65
2022/06/21 14:32:35;;;;;;;8.23;2.72;;;;;;;;;;4947112;28;20035;-65
2022/06/21 14:35:17;;;;;;;11.32;3.08;;;;;;;;;;4947160;28;20113;-63
2022/06/21 14:37:45;;;;;;;7.93;3.20;;;;;;;;;;4950918;28;20107;-66
2022/06/21 14:40:40;;;;;;;8.23;2.97;;;;;;;;;;4951377;28;20042;-67
2022/06/21 14:43:08;;;;;;;11.75;2.58;;;;;;;;;;4954812;28;20787;-66
2022/06/21 14:46:05;;;;;;;8.63;2.90;;;;;;;;;;4970878;28;22313;-67
2022/06/21 14:48:36;;;;;;;9.45;2.80;;;;;;;;;;4959285;28;20045;-67
2022/06/21 14:51:16;;;;;;;8.07;3.05;;;;;;;;;;4968990;28;20096;-67
2022/06/21 14:54:08;;;;;;;10.55;2.88;;;;;;;;;;4970146;28;20141;-67
2022/06/21 14:56:44;;;;;;;8.57;3.13;;;;;;;;;;4971049;28;20037;-68
2022/06/21 14:59:15;;;;;;;5.93;2.70;;;;;;;;;;4971292;28;20041;-66
2022/06/21 15:01:43;;;;;;;7.25;3.03;;;;;;;;;;4970020;28;20037;-66
2022/06/21 15:04:46;;;;;;;7.65;2.95;;;;;;;;;;4970319;28;20065;-67
2022/06/21 15:07:21;;;;;;;7.95;2.65;;;;;;;;;;4894183;28;20050;-67
2022/06/21 15:09:51;;;;;;;10.35;3.38;;;;;;;;;;4956576;28;20038;-65
2022/06/21 15:12:19;;;;;;;7.00;3.03;;;;;;;;;;4969119;28;20065;-65
2022/06/21 15:15:02;;;;;;;8.88;3.10;;;;;;;;;;4971732;28;20037;-67
2022/06/21 15:17:53;;;;;;;9.32;3.25;;;;;;;;;;4967618;28;20453;-67
2022/06/21 15:20:22;;;;;;;11.35;2.92;;;;;;;;;;4941602;28;20030;-67
2022/06/21 15:22:55;;;;;;;8.57;2.92;;;;;;;;;;4944332;28;20046;-66